Kezdőlap
METAR-TAF:

METAR-TAF

Repülőterek :

Elefthériosz Venizélosz nemzetközi repülőtér

Athén, Görögország

földrajzi szélesség: 37-56N, földrajzi hosszúság: 023-56E, magasság: 94 m

Jelenlegi meteorológiai megfigyelések

A jelentés 14 perccel ezelõtt készült, 10:50 UTC
Északi szél 12 kt
Hőmérséklet 22°C
Páratartalom 57%
Légköri nyomás 1016 hPa
Látótávolság 10 km, vagy több
Kevés felhő 1800 lábon
Szórványos felhőzet 4000 lábon

METAR: LGAV 181050Z 01012KT 9999 FEW018 SCT040 22/13 Q1016 NOSIG

Idő: 14:04 (11:04 UTC)

Előrejelzés

A jelentés 6 órával és 4 perccel ezelõtt készült, 05:00 UTC
Az előrejelzés 18-én 06 óra UTC és 19-én 06 óra UTC között érvényes
Különbözõ irányokból fújó szél 5 kt
Látótávolság 10 km, vagy több
Szórványos felhőzet 2500 lábon
18-én 06 óra UTC és 18-én 08 óra UTC között fokozatosan kialakuló
Észak-északkeleti szél 15 kt

TAF: LGAV 180500Z 1806/1906 VRB05KT 9999 SCT025 BECMG 1806/1808 02015KT

Meteorológiai megfigyelések és előrejelzések több, mint 4000 repülőtéren (METAR és TAF jelentéseket).

A térképen piros és sárga pontok jelzik az elérhető meteorológiai állomásokat.

Mozgassa az egeret a pont fölött, hogy megjelenjen az állomás neve.

Azután kattintson az időjárási megfigyelések és előrejelzések megtekintéséhez.

A térkép megváltoztatása: kattintson a fekete keresztel jelölt zöld gombra ráközelítéshez, a vonallal jelölt zöld gombra távolításhoz, vagy a zöld nyilakra a szomszédos térképek eléréséhez.


METAR-TAF: